createdAt,value
2022-12-02T00:01:21.560Z,65.30
2022-12-02T00:03:49.187Z,65.10
2022-12-02T00:06:23.307Z,65.40
2022-12-02T00:08:50.166Z,65.10
2022-12-02T00:11:45.195Z,65.00
2022-12-02T00:14:29.710Z,64.80
2022-12-02T00:16:57.176Z,65.00
2022-12-02T00:19:23.979Z,65.10
2022-12-02T00:21:51.875Z,65.10
2022-12-02T00:24:19.491Z,65.20
2022-12-02T00:26:46.788Z,65.20
2022-12-02T00:29:14.033Z,65.30
2022-12-02T00:31:41.089Z,65.40
2022-12-02T00:34:07.970Z,65.20
2022-12-02T00:36:34.848Z,65.20
2022-12-02T00:39:01.661Z,65.60
2022-12-02T00:41:28.451Z,65.30
2022-12-02T00:44:13.893Z,65.20
2022-12-02T00:46:40.691Z,65.40
2022-12-02T00:49:13.699Z,65.30
2022-12-02T00:51:42.038Z,65.10
2022-12-02T00:54:09.975Z,65.60
2022-12-02T00:56:37.260Z,65.90
2022-12-02T00:59:05.413Z,65.60
2022-12-02T01:01:33.411Z,65.80
2022-12-02T01:04:00.354Z,65.50
2022-12-02T01:06:28.538Z,65.40
2022-12-02T01:08:55.373Z,65.50
2022-12-02T01:11:22.124Z,65.60
2022-12-02T01:13:48.918Z,65.50
2022-12-02T01:16:16.206Z,65.40
2022-12-02T01:18:43.005Z,65.70
2022-12-02T01:21:09.811Z,65.60
2022-12-02T01:23:36.754Z,65.60
2022-12-02T01:26:03.882Z,65.70
2022-12-02T01:28:30.596Z,66.10
2022-12-02T01:30:57.355Z,66.30
2022-12-02T01:33:24.134Z,66.20
2022-12-02T01:35:50.937Z,66.50
2022-12-02T01:38:17.772Z,66.50
2022-12-02T01:40:44.886Z,66.60
2022-12-02T01:43:12.647Z,66.20
2022-12-02T01:45:39.688Z,66.60
2022-12-02T01:48:07.209Z,66.40
2022-12-02T01:50:34.357Z,66.70
2022-12-02T01:53:01.843Z,66.70
2022-12-02T01:55:29.536Z,66.50
2022-12-02T01:57:58.310Z,66.70
2022-12-02T02:00:25.708Z,66.50
2022-12-02T02:02:52.521Z,66.60
2022-12-02T02:05:29.017Z,66.50
2022-12-02T02:07:59.258Z,66.30
2022-12-02T02:10:27.877Z,66.60
2022-12-02T02:12:54.863Z,66.50
2022-12-02T02:15:22.767Z,66.20
2022-12-02T02:17:50.240Z,66.40
2022-12-02T02:20:22.673Z,66.50
2022-12-02T02:22:58.215Z,66.30
2022-12-02T02:25:25.102Z,66.30
2022-12-02T02:27:57.365Z,66.50
2022-12-02T02:30:24.590Z,66.20
2022-12-02T02:32:52.397Z,66.30
2022-12-02T02:35:21.193Z,66.70
2022-12-02T02:37:49.846Z,66.60
2022-12-02T02:40:17.688Z,66.90
2022-12-02T02:42:46.281Z,66.50
2022-12-02T02:45:13.897Z,66.40
2022-12-02T02:47:40.878Z,66.60
2022-12-02T02:50:08.713Z,66.50
2022-12-02T02:52:36.066Z,66.50
2022-12-02T02:55:04.110Z,66.90
2022-12-02T02:57:31.409Z,66.60
2022-12-02T02:59:58.421Z,66.60
2022-12-02T03:02:26.306Z,66.50
2022-12-02T03:04:54.034Z,66.40
2022-12-02T03:07:21.678Z,66.30
2022-12-02T03:09:49.260Z,66.20
2022-12-02T03:12:17.570Z,66.20
2022-12-02T03:14:45.228Z,66.30
2022-12-02T03:17:12.790Z,66.40
2022-12-02T03:19:40.365Z,66.30
2022-12-02T03:22:07.816Z,66.60
2022-12-02T03:24:35.742Z,66.60
2022-12-02T03:27:03.120Z,66.60
2022-12-02T03:29:30.674Z,67.00
2022-12-02T03:32:00.100Z,67.30
2022-12-02T03:34:28.110Z,67.30
2022-12-02T03:36:55.261Z,67.10
2022-12-02T03:39:22.336Z,67.50
2022-12-02T03:41:49.313Z,67.30
2022-12-02T03:44:16.589Z,67.50
2022-12-02T03:46:44.384Z,67.30
2022-12-02T03:49:12.747Z,67.40
2022-12-02T03:51:40.390Z,67.30
2022-12-02T03:54:07.534Z,66.90
2022-12-02T03:56:39.524Z,67.20
2022-12-02T03:59:07.094Z,67.00
2022-12-02T04:01:33.957Z,67.10
2022-12-02T04:04:00.709Z,66.90
2022-12-02T04:06:27.541Z,66.90
2022-12-02T04:08:54.358Z,67.00
2022-12-02T04:11:21.154Z,66.90
2022-12-02T04:13:47.955Z,67.10
2022-12-02T04:16:14.794Z,67.00
2022-12-02T04:18:41.642Z,66.50
2022-12-02T04:21:08.487Z,66.40
2022-12-02T04:23:35.333Z,66.50
2022-12-02T04:26:02.185Z,66.70
2022-12-02T04:28:29.184Z,66.20
2022-12-02T04:30:56.014Z,66.60
2022-12-02T04:33:22.920Z,66.40
2022-12-02T04:35:49.725Z,66.10
2022-12-02T04:38:16.565Z,65.60
2022-12-02T04:40:43.504Z,65.60
2022-12-02T04:43:10.454Z,65.50
2022-12-02T04:45:37.382Z,66.00
2022-12-02T04:48:04.487Z,65.70
2022-12-02T04:50:31.325Z,65.60
2022-12-02T04:52:58.153Z,65.60
2022-12-02T04:55:24.965Z,65.80
2022-12-02T04:57:53.214Z,66.30
2022-12-02T05:00:20.493Z,66.40
2022-12-02T05:02:47.408Z,66.50
2022-12-02T05:05:14.411Z,66.80
2022-12-02T05:07:41.325Z,67.20
2022-12-02T05:10:09.041Z,67.00
2022-12-02T05:12:35.857Z,66.90
2022-12-02T05:15:02.680Z,66.90
2022-12-02T05:17:30.879Z,67.40
2022-12-02T05:19:58.004Z,67.00
2022-12-02T05:22:24.912Z,66.60
2022-12-02T05:24:52.071Z,66.90
2022-12-02T05:27:19.872Z,66.70
2022-12-02T05:29:46.673Z,66.70
2022-12-02T05:32:13.493Z,66.90
2022-12-02T05:34:40.368Z,66.70
2022-12-02T05:37:07.213Z,66.70
2022-12-02T05:39:33.944Z,66.80
2022-12-02T05:42:05.411Z,66.30
2022-12-02T05:44:39.372Z,66.70
2022-12-02T05:47:11.487Z,66.40
2022-12-02T05:49:38.887Z,66.30
2022-12-02T05:52:26.675Z,66.40
2022-12-02T05:54:56.836Z,66.20
2022-12-02T05:57:27.982Z,66.50
2022-12-02T06:00:11.385Z,66.90
2022-12-02T06:02:49.594Z,67.20
2022-12-02T06:05:20.048Z,67.20
2022-12-02T06:07:48.653Z,67.40
2022-12-02T06:10:22.306Z,67.70
2022-12-02T06:12:49.882Z,67.70
2022-12-02T06:15:16.980Z,67.50
2022-12-02T06:17:43.874Z,67.50
2022-12-02T06:20:33.814Z,67.60
2022-12-02T06:23:02.411Z,67.30
2022-12-02T06:25:31.254Z,67.60
2022-12-02T06:28:15.897Z,67.40
2022-12-02T06:30:42.909Z,67.80
2022-12-02T06:33:24.580Z,67.70
2022-12-02T06:35:52.160Z,67.90
2022-12-02T06:38:30.829Z,68.20
2022-12-02T06:41:12.841Z,67.70
2022-12-02T06:43:39.686Z,68.10
2022-12-02T06:46:17.671Z,67.90
2022-12-02T06:48:44.455Z,67.90
2022-12-02T06:51:20.044Z,67.90
2022-12-02T06:53:47.513Z,67.50
2022-12-02T06:56:17.109Z,67.90
2022-12-02T06:58:47.630Z,67.80
2022-12-02T07:01:22.149Z,67.50
2022-12-02T07:03:57.418Z,67.40
2022-12-02T07:06:26.857Z,67.40
2022-12-02T07:08:58.050Z,67.00
2022-12-02T07:12:03.919Z,67.30
2022-12-02T07:15:07.585Z,66.70
2022-12-02T07:17:40.288Z,66.70
2022-12-02T07:20:07.032Z,66.50
2022-12-02T07:22:35.677Z,66.70
2022-12-02T07:25:16.752Z,66.40
2022-12-02T07:27:48.679Z,66.90
2022-12-02T07:30:21.180Z,66.80
2022-12-02T07:32:47.907Z,67.00
2022-12-02T07:35:14.829Z,66.90
2022-12-02T07:37:41.761Z,67.10
2022-12-02T07:40:09.022Z,67.30
2022-12-02T07:42:36.012Z,67.30
2022-12-02T07:45:02.835Z,67.40
2022-12-02T07:47:29.531Z,67.10
2022-12-02T07:49:56.294Z,67.20
2022-12-02T07:52:23.046Z,67.30
2022-12-02T07:54:50.295Z,67.20
2022-12-02T07:57:17.317Z,66.70
2022-12-02T07:59:44.088Z,67.20
2022-12-02T08:02:10.861Z,66.90
2022-12-02T08:04:37.716Z,67.10
2022-12-02T08:07:04.729Z,67.00
2022-12-02T08:09:31.555Z,67.10
2022-12-02T08:11:58.647Z,67.10
2022-12-02T08:14:25.565Z,66.80
2022-12-02T08:16:52.520Z,67.00
2022-12-02T08:19:19.438Z,66.80
2022-12-02T08:21:46.262Z,66.80
2022-12-02T08:24:13.162Z,66.50
2022-12-02T08:26:40.157Z,66.50
2022-12-02T08:29:06.992Z,66.00
2022-12-02T08:31:33.764Z,65.90
2022-12-02T08:34:06.592Z,66.10
2022-12-02T08:36:34.495Z,66.00
2022-12-02T08:39:05.769Z,65.90
2022-12-02T08:41:37.141Z,66.00
2022-12-02T08:44:05.008Z,65.80
2022-12-02T08:46:32.107Z,66.20
2022-12-02T08:49:00.154Z,66.30
2022-12-02T08:51:27.238Z,66.00
2022-12-02T08:53:54.579Z,66.20
2022-12-02T08:56:21.431Z,65.40
2022-12-02T08:58:48.398Z,66.10
2022-12-02T09:01:15.217Z,65.70
2022-12-02T09:03:42.153Z,66.30
2022-12-02T09:06:09.021Z,65.90
2022-12-02T09:08:36.007Z,65.90
2022-12-02T09:11:03.005Z,65.80
2022-12-02T09:13:29.805Z,65.50
2022-12-02T09:15:56.609Z,65.90
2022-12-02T09:18:25.159Z,65.10
2022-12-02T09:20:51.928Z,64.70
2022-12-02T09:23:18.729Z,64.40
2022-12-02T09:25:45.541Z,64.60
2022-12-02T09:28:12.355Z,64.90
2022-12-02T09:30:40.036Z,64.50
2022-12-02T09:33:06.789Z,64.50
2022-12-02T09:35:33.641Z,64.40
2022-12-02T09:38:01.944Z,64.50
2022-12-02T09:40:28.825Z,64.30
2022-12-02T09:42:55.850Z,63.80
2022-12-02T09:45:22.673Z,63.30
2022-12-02T09:47:49.645Z,62.80
2022-12-02T09:50:17.433Z,62.80
2022-12-02T09:52:45.770Z,62.70
2022-12-02T09:55:15.319Z,62.40
2022-12-02T09:57:42.188Z,62.20
2022-12-02T10:00:21.955Z,62.70
2022-12-02T10:02:54.345Z,62.80
2022-12-02T10:05:22.833Z,62.70
2022-12-02T10:07:50.885Z,63.20
2022-12-02T10:10:23.365Z,62.90
2022-12-02T10:12:50.582Z,63.00
2022-12-02T10:15:29.245Z,62.90
2022-12-02T10:17:56.657Z,63.00
2022-12-02T10:20:27.398Z,62.70
2022-12-02T10:23:16.637Z,62.40
2022-12-02T10:25:51.658Z,62.10
2022-12-02T10:28:28.766Z,62.30
2022-12-02T10:31:05.476Z,62.40
2022-12-02T10:33:35.957Z,62.30
2022-12-02T10:36:03.601Z,61.80
2022-12-02T10:38:45.341Z,61.20
2022-12-02T10:41:15.268Z,61.40
2022-12-02T10:43:52.430Z,61.30
2022-12-02T10:46:20.768Z,61.30
2022-12-02T10:48:48.642Z,60.70
2022-12-02T10:51:17.666Z,60.80
2022-12-02T10:53:47.691Z,60.80
2022-12-02T10:56:23.927Z,60.70
2022-12-02T10:58:51.528Z,60.70
2022-12-02T11:01:21.154Z,60.90
2022-12-02T11:03:48.626Z,60.60
2022-12-02T11:06:18.694Z,59.90
2022-12-02T11:08:48.270Z,60.00
2022-12-02T11:11:35.841Z,60.30
2022-12-02T11:14:05.891Z,60.50
2022-12-02T11:16:32.705Z,60.60
2022-12-02T11:19:33.596Z,60.60
2022-12-02T11:22:01.063Z,60.10
2022-12-02T11:24:27.965Z,60.30
2022-12-02T11:27:01.080Z,59.90
2022-12-02T11:29:32.713Z,60.10
2022-12-02T11:32:26.824Z,60.20
2022-12-02T11:37:47.443Z,59.90
2022-12-02T11:40:17.198Z,60.10
2022-12-02T11:42:45.635Z,59.80
2022-12-02T11:45:15.570Z,59.80
2022-12-02T11:48:02.746Z,60.00
2022-12-02T11:50:32.375Z,60.00
2022-12-02T11:53:16.206Z,60.20
2022-12-02T11:55:46.115Z,59.90
2022-12-02T11:58:32.349Z,60.00
2022-12-02T12:01:15.268Z,59.80
2022-12-02T12:03:50.597Z,60.10
2022-12-02T12:06:17.433Z,60.40
2022-12-02T12:08:53.515Z,60.10
2022-12-02T12:11:22.398Z,60.00
2022-12-02T12:14:04.659Z,60.50
2022-12-02T12:16:37.544Z,60.30
2022-12-02T12:19:13.517Z,60.40
2022-12-02T12:21:45.997Z,59.80
2022-12-02T12:24:18.815Z,59.80
2022-12-02T12:26:46.701Z,60.00
2022-12-02T12:29:13.604Z,59.80
2022-12-02T12:31:40.501Z,59.90
2022-12-02T12:34:07.937Z,60.00
2022-12-02T12:36:35.740Z,60.20
2022-12-02T12:39:03.819Z,59.50
2022-12-02T12:41:58.743Z,58.90
2022-12-02T12:44:17.380Z,59.70
2022-12-02T12:46:44.366Z,59.80
2022-12-02T12:49:11.275Z,59.90
2022-12-02T12:51:38.216Z,59.70
2022-12-02T12:54:05.260Z,59.90
2022-12-02T12:56:32.009Z,60.00
2022-12-02T12:58:58.834Z,60.30
2022-12-02T13:01:25.650Z,60.30
2022-12-02T13:03:52.583Z,60.20
2022-12-02T13:06:20.838Z,60.10
2022-12-02T13:08:47.833Z,59.90
2022-12-02T13:11:14.935Z,60.30
2022-12-02T13:13:41.849Z,60.30
2022-12-02T13:16:09.096Z,60.40
2022-12-02T13:18:35.875Z,60.70
2022-12-02T13:21:02.726Z,60.90
2022-12-02T13:23:29.481Z,60.80
2022-12-02T13:25:56.542Z,61.80
2022-12-02T13:28:23.277Z,62.00
2022-12-02T13:30:52.491Z,62.20
2022-12-02T13:33:19.380Z,62.30
2022-12-02T13:35:46.292Z,62.60
2022-12-02T13:38:16.470Z,62.80
2022-12-02T13:40:47.595Z,63.20
2022-12-02T13:43:17.480Z,62.90
2022-12-02T13:45:44.588Z,62.70
2022-12-02T13:48:13.273Z,63.50
2022-12-02T13:50:40.935Z,63.40
2022-12-02T13:53:08.175Z,63.10
2022-12-02T13:55:35.014Z,61.70
2022-12-02T13:58:02.231Z,62.40
2022-12-02T14:00:29.080Z,62.10
2022-12-02T14:02:55.864Z,62.40
2022-12-02T14:05:22.988Z,63.30
2022-12-02T14:07:50.244Z,62.00
2022-12-02T14:10:17.232Z,61.70
2022-12-02T14:12:44.255Z,62.20
2022-12-02T14:15:11.506Z,62.00
2022-12-02T14:17:38.288Z,61.40
2022-12-02T14:20:06.207Z,61.50
2022-12-02T14:22:33.382Z,61.40
2022-12-02T14:25:00.475Z,61.40
2022-12-02T14:27:27.401Z,61.80
2022-12-02T14:29:54.462Z,61.70
2022-12-02T14:32:21.603Z,61.50
2022-12-02T14:34:48.942Z,61.20
2022-12-02T14:37:15.871Z,61.20
2022-12-02T14:39:42.845Z,61.40
2022-12-02T14:42:09.867Z,61.10
2022-12-02T14:44:37.111Z,61.40
2022-12-02T14:47:04.034Z,61.60
2022-12-02T14:49:40.148Z,62.00
2022-12-02T14:52:07.748Z,62.80
2022-12-02T14:54:35.731Z,64.10
2022-12-02T14:57:02.846Z,65.00
2022-12-02T14:59:29.850Z,64.80
2022-12-02T15:01:57.197Z,65.60
2022-12-02T15:04:24.126Z,65.60
2022-12-02T15:06:50.901Z,66.30
2022-12-02T15:09:17.694Z,66.60
2022-12-02T15:11:44.657Z,67.00
2022-12-02T15:14:11.453Z,67.00
2022-12-02T15:16:38.418Z,67.50
2022-12-02T15:19:05.320Z,67.90
2022-12-02T15:38:46.744Z,65.70
2022-12-02T15:41:13.542Z,67.20
2022-12-02T15:43:40.338Z,67.60
2022-12-02T15:46:07.133Z,68.00
2022-12-02T15:48:34.077Z,68.40
2022-12-02T15:51:00.960Z,68.80
2022-12-02T15:53:27.871Z,68.80
2022-12-02T15:55:54.704Z,68.80
2022-12-02T15:58:21.620Z,69.60
2022-12-02T16:00:48.457Z,69.70
2022-12-02T16:03:33.906Z,69.70
2022-12-02T16:06:00.804Z,69.70
2022-12-02T16:08:27.595Z,69.50
2022-12-02T16:10:54.379Z,69.60
2022-12-02T16:13:21.185Z,69.50
2022-12-02T16:15:47.951Z,70.20
2022-12-02T16:18:15.074Z,69.90
2022-12-02T16:20:41.857Z,70.30
2022-12-02T16:23:08.929Z,70.20
2022-12-02T16:25:35.752Z,70.00
2022-12-02T16:28:02.635Z,70.10
2022-12-02T16:30:30.676Z,70.50
2022-12-02T16:32:57.601Z,70.50
2022-12-02T16:35:24.438Z,71.00
2022-12-02T16:37:51.379Z,70.70
2022-12-02T16:40:18.199Z,70.90
2022-12-02T16:42:45.066Z,71.00
2022-12-02T16:45:11.873Z,70.90
2022-12-02T16:59:24.555Z,70.50
2022-12-02T17:01:51.464Z,69.60
2022-12-02T17:04:18.356Z,69.90
2022-12-02T17:06:45.826Z,70.10
2022-12-02T17:09:13.011Z,70.60
2022-12-02T17:11:40.416Z,70.70
2022-12-02T17:14:07.370Z,71.10
2022-12-02T17:16:34.528Z,71.30
2022-12-02T17:19:02.371Z,71.30
2022-12-02T17:21:29.237Z,71.40
2022-12-02T17:23:56.128Z,71.70
2022-12-02T17:26:22.918Z,72.20
2022-12-02T17:28:49.726Z,71.80
2022-12-02T17:31:16.618Z,72.30
2022-12-02T17:33:43.526Z,72.20
2022-12-02T17:36:10.300Z,72.40
2022-12-02T17:38:55.501Z,72.20
2022-12-02T17:41:23.950Z,71.90
2022-12-02T17:43:50.887Z,71.90
2022-12-02T17:46:17.931Z,72.10
2022-12-02T17:48:45.071Z,71.90
2022-12-02T17:51:12.890Z,72.10
2022-12-02T17:53:40.639Z,71.90
2022-12-02T17:56:07.939Z,72.20
2022-12-02T17:58:35.042Z,72.20
2022-12-02T18:01:07.818Z,71.90
2022-12-02T18:03:38.549Z,72.00
2022-12-02T18:06:06.255Z,72.00
2022-12-02T18:08:33.440Z,72.10
2022-12-02T18:11:00.434Z,72.00
2022-12-02T18:13:27.419Z,72.00
2022-12-02T18:15:54.389Z,72.10
2022-12-02T18:18:21.242Z,71.90
2022-12-02T18:20:48.041Z,72.00
2022-12-02T18:23:14.884Z,72.20
2022-12-02T18:25:41.847Z,72.20
2022-12-02T18:28:08.933Z,72.20
2022-12-02T18:30:35.835Z,72.50
2022-12-02T18:33:02.829Z,72.40
2022-12-02T18:35:29.778Z,72.50
2022-12-02T18:37:56.689Z,72.40
2022-12-02T18:40:23.806Z,72.90
2022-12-02T18:42:50.645Z,72.50
2022-12-02T18:45:17.500Z,72.80
2022-12-02T18:47:44.452Z,72.90
2022-12-02T18:50:12.640Z,73.00
2022-12-02T18:52:40.027Z,73.10
2022-12-02T18:55:07.344Z,73.20
2022-12-02T18:57:34.308Z,73.50
2022-12-02T19:00:01.152Z,73.70
2022-12-02T19:02:28.090Z,73.50
2022-12-02T19:04:55.174Z,73.60
2022-12-02T19:07:23.588Z,73.40
2022-12-02T19:09:53.934Z,73.70
2022-12-02T19:12:21.462Z,74.20
2022-12-02T19:14:48.557Z,73.90
2022-12-02T19:17:15.600Z,73.60
2022-12-02T19:19:43.161Z,73.90
2022-12-02T19:22:10.662Z,74.10
2022-12-02T19:24:37.517Z,73.70
2022-12-02T19:27:04.847Z,74.00
2022-12-02T19:29:31.727Z,74.10
2022-12-02T19:31:58.741Z,74.10
2022-12-02T19:34:25.670Z,74.10
2022-12-02T19:36:52.466Z,73.90
2022-12-02T19:39:19.395Z,73.80
2022-12-02T19:41:46.283Z,73.60
2022-12-02T19:44:13.177Z,73.80
2022-12-02T19:46:40.093Z,73.80
2022-12-02T19:49:06.971Z,73.80
2022-12-02T19:51:33.851Z,73.80
2022-12-02T19:54:01.215Z,73.90
2022-12-02T19:56:28.100Z,73.80
2022-12-02T19:58:55.077Z,74.10
2022-12-02T20:01:22.758Z,73.90
2022-12-02T20:03:49.786Z,74.10
2022-12-02T20:06:16.686Z,74.10
2022-12-02T20:08:43.673Z,74.30
2022-12-02T20:11:10.585Z,74.00
2022-12-02T20:13:37.991Z,74.10
2022-12-02T20:16:05.323Z,74.20
2022-12-02T20:18:32.295Z,74.40
2022-12-02T20:20:59.221Z,74.30
2022-12-02T20:23:28.703Z,74.50
2022-12-02T20:25:55.766Z,74.40
2022-12-02T20:28:22.623Z,74.20
2022-12-02T20:30:49.493Z,74.50
2022-12-02T20:33:17.853Z,74.60
2022-12-02T20:35:44.721Z,74.80
2022-12-02T20:38:11.574Z,74.80
2022-12-02T20:40:39.414Z,74.70
2022-12-02T20:43:06.458Z,74.50
2022-12-02T20:45:33.369Z,74.50
2022-12-02T20:48:00.262Z,74.40
2022-12-02T20:50:27.286Z,74.10
2022-12-02T20:52:54.547Z,74.20
2022-12-02T20:55:21.767Z,74.60
2022-12-02T20:57:48.663Z,74.50
2022-12-02T21:00:16.376Z,74.60
2022-12-02T21:02:43.643Z,74.70
2022-12-02T21:05:11.102Z,74.80
2022-12-02T21:07:38.554Z,74.90
2022-12-02T21:10:06.129Z,74.80
2022-12-02T21:12:33.008Z,74.60
2022-12-02T21:15:00.007Z,75.00
2022-12-02T21:17:27.372Z,74.90
2022-12-02T21:19:54.254Z,75.00
2022-12-02T21:22:21.116Z,75.30
2022-12-02T21:24:47.994Z,75.00
2022-12-02T21:27:15.391Z,74.90
2022-12-02T21:29:42.406Z,75.10
2022-12-02T21:32:09.187Z,75.10
2022-12-02T21:34:36.213Z,75.50
2022-12-02T21:37:03.071Z,75.30
2022-12-02T21:39:29.892Z,75.50
2022-12-02T21:41:56.733Z,75.60
2022-12-02T21:44:23.603Z,75.70
2022-12-02T21:46:50.629Z,75.90
2022-12-02T21:49:17.421Z,75.70
2022-12-02T21:51:44.301Z,75.60
2022-12-02T21:54:11.141Z,75.60
2022-12-02T21:56:37.887Z,75.70
2022-12-02T21:59:04.829Z,75.70
2022-12-02T22:01:42.128Z,75.90
2022-12-02T22:04:17.371Z,76.00
2022-12-02T22:06:44.849Z,76.00
2022-12-02T22:09:12.381Z,76.30
2022-12-02T22:11:39.233Z,75.80
2022-12-02T22:14:06.547Z,75.80
2022-12-02T22:16:33.654Z,75.80
2022-12-02T22:19:00.545Z,75.60
2022-12-02T22:21:27.855Z,75.40
2022-12-02T22:23:54.844Z,75.50
2022-12-02T22:26:21.693Z,75.30
2022-12-02T22:28:48.553Z,75.40
2022-12-02T22:31:15.552Z,75.60
2022-12-02T22:33:42.478Z,75.30
2022-12-02T22:36:09.778Z,75.90
2022-12-02T22:38:36.631Z,75.70
2022-12-02T22:41:03.658Z,75.70
2022-12-02T22:43:30.462Z,76.00
2022-12-02T22:45:57.334Z,75.70
2022-12-02T22:48:24.301Z,76.20
2022-12-02T22:50:51.156Z,75.30
2022-12-02T22:53:18.009Z,75.90
2022-12-02T22:55:44.956Z,76.10
2022-12-02T22:58:11.744Z,75.90
2022-12-02T23:00:38.569Z,76.20
2022-12-02T23:03:05.512Z,76.30
2022-12-02T23:05:32.420Z,76.70
2022-12-02T23:07:59.330Z,76.50
2022-12-02T23:10:26.505Z,76.50
2022-12-02T23:12:53.330Z,76.50
2022-12-02T23:15:37.531Z,76.60
2022-12-02T23:18:05.931Z,76.40
2022-12-02T23:20:32.824Z,76.20
2022-12-02T23:22:59.673Z,76.30
2022-12-02T23:25:26.578Z,76.10
2022-12-02T23:27:53.359Z,76.40
2022-12-02T23:30:26.741Z,76.70
2022-12-02T23:32:56.021Z,76.70
2022-12-02T23:35:22.839Z,77.00
2022-12-02T23:37:49.817Z,76.90
2022-12-02T23:40:16.780Z,76.80
2022-12-02T23:42:43.779Z,77.50
2022-12-02T23:45:11.422Z,77.20
2022-12-02T23:47:38.749Z,77.60
2022-12-02T23:50:07.723Z,77.70
2022-12-02T23:52:34.577Z,77.80
2022-12-02T23:55:01.389Z,78.20
2022-12-02T23:57:28.289Z,78.40
2022-12-02T23:59:55.122Z,78.10
